createdAt,value
2023-05-24T00:01:57.134Z,8.77
2023-05-24T00:04:25.587Z,8.72
2023-05-24T00:06:55.160Z,8.70
2023-05-24T00:09:22.005Z,8.70
2023-05-24T00:11:48.999Z,8.73
2023-05-24T00:14:15.931Z,8.69
2023-05-24T00:16:42.762Z,8.68
2023-05-24T00:19:11.562Z,8.62
2023-05-24T00:21:38.590Z,8.62
2023-05-24T00:24:05.420Z,8.57
2023-05-24T00:26:34.333Z,8.51
2023-05-24T00:29:00.965Z,8.51
2023-05-24T00:31:27.570Z,8.46
2023-05-24T00:33:54.192Z,8.48
2023-05-24T00:36:21.106Z,8.46
2023-05-24T00:38:47.837Z,8.51
2023-05-24T00:41:14.656Z,8.50
2023-05-24T00:43:43.425Z,8.54
2023-05-24T00:46:15.724Z,8.49
2023-05-24T00:48:43.497Z,8.47
2023-05-24T00:51:12.407Z,8.44
2023-05-24T00:53:41.542Z,8.42
2023-05-24T00:56:08.754Z,8.36
2023-05-24T00:58:35.673Z,8.32
2023-05-24T01:01:03.136Z,8.37
2023-05-24T01:03:30.210Z,8.31
2023-05-24T01:06:01.758Z,8.34
2023-05-24T01:08:35.684Z,8.33
2023-05-24T01:11:30.336Z,8.29
2023-05-24T01:14:21.500Z,8.17
2023-05-24T01:16:56.606Z,8.20
2023-05-24T01:19:35.527Z,8.20
2023-05-24T01:22:30.082Z,8.17
2023-05-24T01:25:42.031Z,8.11
2023-05-24T01:28:10.608Z,8.00
2023-05-24T01:30:37.353Z,7.97
2023-05-24T01:33:05.697Z,7.95
2023-05-24T01:35:32.357Z,7.88
2023-05-24T01:37:58.950Z,7.86
2023-05-24T01:40:25.978Z,7.86
2023-05-24T01:42:58.112Z,7.83
2023-05-24T01:45:48.749Z,7.78
2023-05-24T01:48:49.338Z,7.74
2023-05-24T01:51:19.667Z,7.65
2023-05-24T01:53:49.100Z,7.62
2023-05-24T01:56:17.283Z,7.59
2023-05-24T01:58:45.736Z,7.48
2023-05-24T02:01:13.665Z,7.31
2023-05-24T02:03:43.395Z,7.28
2023-05-24T02:06:10.958Z,7.28
2023-05-24T02:08:37.704Z,7.18
2023-05-24T02:11:04.461Z,7.08
2023-05-24T02:13:31.055Z,7.02
2023-05-24T02:15:57.689Z,6.97
2023-05-24T02:18:24.348Z,6.88
2023-05-24T02:20:51.538Z,6.77
2023-05-24T02:23:18.198Z,6.81
2023-05-24T02:25:44.890Z,6.71
2023-05-24T02:28:11.542Z,6.67
2023-05-24T02:30:39.882Z,6.58
2023-05-24T02:33:06.824Z,6.51
2023-05-24T02:35:36.603Z,6.45
2023-05-24T02:38:06.844Z,6.48
2023-05-24T02:40:33.785Z,6.41
2023-05-24T02:43:00.337Z,6.32
2023-05-24T02:45:27.005Z,6.29
2023-05-24T02:47:53.659Z,6.23
2023-05-24T02:50:20.286Z,6.19
2023-05-24T02:52:46.915Z,6.22
2023-05-24T02:55:13.555Z,6.11
2023-05-24T02:57:41.818Z,6.08
2023-05-24T03:00:09.889Z,5.99
2023-05-24T03:02:38.820Z,6.04
2023-05-24T03:05:06.147Z,5.98
2023-05-24T03:07:32.816Z,5.92
2023-05-24T03:09:59.528Z,5.94
2023-05-24T03:12:26.472Z,5.87
2023-05-24T03:14:53.008Z,5.95
2023-05-24T03:17:19.604Z,5.91
2023-05-24T03:19:46.213Z,5.91
2023-05-24T03:22:12.866Z,5.86
2023-05-24T03:24:40.334Z,5.89
2023-05-24T03:27:07.189Z,5.92
2023-05-24T03:29:33.844Z,5.96
2023-05-24T03:32:00.681Z,6.01
2023-05-24T03:34:27.380Z,6.12
2023-05-24T03:36:53.967Z,6.11
2023-05-24T03:39:20.604Z,6.09
2023-05-24T03:41:47.208Z,6.06
2023-05-24T03:44:13.856Z,6.04
2023-05-24T03:46:40.884Z,6.08
2023-05-24T03:49:09.131Z,6.07
2023-05-24T03:51:36.354Z,6.11
2023-05-24T03:54:03.289Z,6.13
2023-05-24T03:56:30.133Z,6.18
2023-05-24T03:59:00.777Z,6.16
2023-05-24T04:01:34.188Z,6.06
2023-05-24T04:04:02.298Z,6.20
2023-05-24T04:06:30.196Z,6.27
2023-05-24T04:08:58.834Z,6.32
2023-05-24T04:11:28.620Z,6.37
2023-05-24T04:13:56.238Z,6.39
2023-05-24T04:16:27.607Z,6.43
2023-05-24T04:18:57.982Z,6.49
2023-05-24T04:21:24.802Z,6.48
2023-05-24T04:23:51.424Z,6.62
2023-05-24T04:26:18.573Z,6.68
2023-05-24T04:28:48.797Z,6.76
2023-05-24T04:31:16.693Z,6.82
2023-05-24T04:33:43.632Z,6.83
2023-05-24T04:36:11.848Z,6.93
2023-05-24T04:38:39.446Z,7.01
2023-05-24T04:41:06.015Z,7.07
2023-05-24T04:43:34.855Z,7.14
2023-05-24T04:46:03.067Z,7.19
2023-05-24T04:48:29.871Z,7.24
2023-05-24T04:51:00.917Z,7.27
2023-05-24T04:53:30.321Z,7.39
2023-05-24T04:55:56.882Z,7.44
2023-05-24T04:58:23.580Z,7.48
2023-05-24T05:00:50.273Z,7.55
2023-05-24T05:03:17.165Z,7.59
2023-05-24T05:05:44.679Z,7.63
2023-05-24T05:08:11.367Z,7.75
2023-05-24T05:10:37.971Z,7.77
2023-05-24T05:13:04.808Z,7.80
2023-05-24T05:15:31.490Z,7.90
2023-05-24T05:17:58.164Z,7.95
2023-05-24T05:20:25.569Z,7.97
2023-05-24T05:22:52.228Z,8.02
2023-05-24T05:25:20.387Z,8.07
2023-05-24T05:27:47.093Z,8.16
2023-05-24T05:30:14.074Z,8.22
2023-05-24T05:32:40.999Z,8.35
2023-05-24T05:35:08.304Z,8.38
2023-05-24T05:37:42.892Z,8.52
2023-05-24T05:40:09.981Z,8.58
2023-05-24T05:42:39.320Z,8.70
2023-05-24T05:45:06.635Z,8.82
2023-05-24T05:47:33.360Z,8.97
2023-05-24T05:50:00.199Z,9.06
2023-05-24T05:52:26.812Z,9.22
2023-05-24T05:54:54.634Z,9.32
2023-05-24T05:57:24.622Z,9.41
2023-05-24T05:59:51.629Z,9.54
2023-05-24T06:02:24.873Z,9.64
2023-05-24T06:04:51.855Z,9.85
2023-05-24T06:07:25.927Z,9.86
2023-05-24T06:09:52.567Z,10.05
2023-05-24T06:12:20.659Z,10.11
2023-05-24T06:14:50.753Z,10.23
2023-05-24T06:17:17.482Z,10.38
2023-05-24T06:19:44.195Z,10.40
2023-05-24T06:22:11.099Z,10.52
2023-05-24T06:24:37.972Z,10.55
2023-05-24T06:27:05.705Z,10.52
2023-05-24T06:29:32.415Z,10.57
2023-05-24T06:31:59.064Z,10.52
2023-05-24T06:34:25.852Z,10.49
2023-05-24T06:36:53.137Z,10.50
2023-05-24T06:39:19.987Z,10.56
2023-05-24T06:41:47.483Z,10.62
2023-05-24T06:44:14.294Z,10.64
2023-05-24T06:46:41.122Z,10.63
2023-05-24T06:49:07.866Z,10.69
2023-05-24T06:51:34.725Z,10.87
2023-05-24T06:54:01.213Z,11.00
2023-05-24T06:56:29.141Z,11.08
2023-05-24T06:58:56.510Z,11.24
2023-05-24T07:01:23.509Z,11.32
2023-05-24T07:03:50.299Z,11.26
2023-05-24T07:06:17.380Z,11.44
2023-05-24T07:08:44.030Z,11.50
2023-05-24T07:11:10.770Z,11.53
2023-05-24T07:13:38.981Z,11.42
2023-05-24T07:16:06.694Z,11.24
2023-05-24T07:18:33.410Z,11.23
2023-05-24T07:21:04.294Z,11.16
2023-05-24T07:23:31.400Z,11.12
2023-05-24T07:25:58.065Z,11.16
2023-05-24T07:28:24.838Z,11.07
2023-05-24T07:30:51.934Z,11.11
2023-05-24T07:33:19.019Z,11.05
2023-05-24T07:35:51.901Z,11.06
2023-05-24T07:38:21.657Z,11.06
2023-05-24T07:40:49.336Z,11.07
2023-05-24T07:43:16.097Z,11.09
2023-05-24T07:45:44.008Z,11.15
2023-05-24T07:48:11.165Z,11.14
2023-05-24T07:50:39.124Z,11.09
2023-05-24T07:53:06.524Z,11.16
2023-05-24T07:55:34.802Z,11.13
2023-05-24T07:58:01.671Z,11.27
2023-05-24T08:00:28.443Z,11.40
2023-05-24T08:02:55.185Z,11.58
2023-05-24T08:05:22.396Z,11.75
2023-05-24T08:07:50.401Z,11.89
2023-05-24T08:10:17.378Z,12.10
2023-05-24T08:12:45.596Z,12.25
2023-05-24T08:15:12.512Z,12.57
2023-05-24T08:17:39.806Z,12.80
2023-05-24T08:20:09.127Z,12.97
2023-05-24T08:22:37.416Z,13.02
2023-05-24T08:25:04.460Z,13.00
2023-05-24T08:27:31.410Z,12.96
2023-05-24T08:29:58.104Z,13.00
2023-05-24T08:32:25.059Z,12.88
2023-05-24T08:34:57.775Z,12.69
2023-05-24T08:37:28.513Z,12.53
2023-05-24T08:39:55.221Z,12.43
2023-05-24T08:42:23.091Z,12.46
2023-05-24T08:44:58.836Z,12.27
2023-05-24T08:47:27.069Z,12.27
2023-05-24T08:49:53.966Z,12.31
2023-05-24T08:52:22.541Z,12.30
2023-05-24T08:54:50.282Z,12.25
2023-05-24T08:57:18.208Z,12.22
2023-05-24T08:59:44.894Z,12.22
2023-05-24T09:02:14.824Z,12.32
2023-05-24T09:04:44.470Z,12.37
2023-05-24T09:07:14.030Z,12.39
2023-05-24T09:09:48.145Z,12.38
2023-05-24T09:12:35.609Z,12.41
2023-05-24T09:15:07.206Z,12.46
2023-05-24T09:17:38.285Z,12.47
2023-05-24T09:20:09.283Z,12.52
2023-05-24T09:22:40.792Z,12.57
2023-05-24T09:25:10.003Z,12.68
2023-05-24T09:27:37.721Z,12.76
2023-05-24T09:30:12.933Z,12.78
2023-05-24T09:32:39.891Z,12.92
2023-05-24T09:35:10.918Z,12.92
2023-05-24T09:37:39.176Z,12.92
2023-05-24T09:40:07.397Z,13.01
2023-05-24T09:42:34.247Z,13.15
2023-05-24T09:45:07.019Z,13.18
2023-05-24T09:47:35.191Z,13.27
2023-05-24T09:50:03.674Z,13.36
2023-05-24T09:52:31.721Z,13.27
2023-05-24T09:55:00.417Z,13.31
2023-05-24T09:57:28.361Z,13.25
2023-05-24T09:59:55.095Z,13.35
2023-05-24T10:02:24.005Z,13.41
2023-05-24T10:05:00.252Z,13.54
2023-05-24T10:07:27.353Z,13.38
2023-05-24T10:09:54.351Z,13.52
2023-05-24T10:12:23.432Z,13.71
2023-05-24T10:14:52.150Z,13.82
2023-05-24T10:17:19.775Z,14.00
2023-05-24T10:19:46.553Z,14.11
2023-05-24T10:22:15.968Z,14.05
2023-05-24T10:24:47.854Z,14.50
2023-05-24T10:27:19.649Z,14.97
2023-05-24T10:30:01.561Z,15.16
2023-05-24T10:32:32.413Z,15.31
2023-05-24T10:35:00.715Z,15.40
2023-05-24T10:37:27.455Z,15.41
2023-05-24T10:39:54.393Z,15.36
2023-05-24T10:42:21.545Z,15.29
2023-05-24T10:44:48.186Z,15.27
2023-05-24T10:47:17.118Z,15.13
2023-05-24T10:49:52.505Z,15.18
2023-05-24T10:52:19.729Z,15.05
2023-05-24T10:55:05.707Z,15.01
2023-05-24T10:57:33.177Z,15.09
2023-05-24T11:00:35.402Z,15.31
2023-05-24T11:03:06.936Z,15.29
2023-05-24T11:05:51.964Z,15.44
2023-05-24T11:08:45.226Z,15.71
2023-05-24T11:11:25.831Z,15.97
2023-05-24T11:13:58.083Z,16.03
2023-05-24T11:16:39.600Z,15.88
2023-05-24T11:19:16.555Z,15.74
2023-05-24T11:21:46.270Z,15.72
2023-05-24T11:24:13.493Z,15.47
2023-05-24T11:26:41.323Z,15.43
2023-05-24T11:29:08.153Z,15.45
2023-05-24T11:31:37.912Z,15.48
2023-05-24T11:34:13.089Z,15.55
2023-05-24T11:36:42.403Z,15.51
2023-05-24T11:39:09.768Z,15.63
2023-05-24T11:41:38.951Z,15.99
2023-05-24T11:44:12.356Z,16.22
2023-05-24T11:46:40.600Z,16.55
2023-05-24T11:49:07.536Z,16.51
2023-05-24T11:51:36.104Z,16.67
2023-05-24T11:54:02.776Z,16.93
2023-05-24T11:56:38.629Z,17.02
2023-05-24T11:59:12.438Z,16.71
2023-05-24T12:01:39.141Z,16.35
2023-05-24T12:04:12.273Z,16.16
2023-05-24T12:06:44.007Z,16.05
2023-05-24T12:09:16.697Z,15.74
2023-05-24T12:11:47.553Z,15.70
2023-05-24T12:14:17.300Z,15.52
2023-05-24T12:16:49.343Z,15.35
2023-05-24T12:21:59.489Z,15.05
2023-05-24T12:24:27.316Z,14.85
2023-05-24T12:27:08.999Z,14.63
2023-05-24T12:29:41.159Z,14.48
2023-05-24T12:32:13.678Z,14.37
2023-05-24T12:34:42.612Z,14.27
2023-05-24T12:37:10.402Z,14.21
2023-05-24T12:39:37.927Z,14.11
2023-05-24T12:42:06.314Z,14.06
2023-05-24T12:44:37.080Z,13.95
2023-05-24T12:47:08.646Z,13.95
2023-05-24T12:49:35.962Z,13.88
2023-05-24T12:52:02.864Z,13.93
2023-05-24T12:54:30.156Z,13.83
2023-05-24T12:57:00.395Z,13.89
2023-05-24T12:59:28.947Z,13.96
2023-05-24T13:01:58.181Z,14.02
2023-05-24T13:04:27.736Z,14.11
2023-05-24T13:06:54.988Z,14.32
2023-05-24T13:09:23.738Z,14.44
2023-05-24T13:11:51.076Z,14.59
2023-05-24T13:14:18.465Z,14.68
2023-05-24T13:16:45.426Z,14.71
2023-05-24T13:19:13.631Z,14.72
2023-05-24T13:21:40.767Z,14.81
2023-05-24T13:24:07.902Z,14.81
2023-05-24T13:26:38.205Z,14.89
2023-05-24T13:31:41.134Z,15.03
2023-05-24T13:34:10.966Z,15.07
2023-05-24T13:36:38.382Z,14.99
2023-05-24T13:39:15.565Z,14.98
2023-05-24T13:41:44.631Z,15.12
2023-05-24T13:44:12.567Z,15.07
2023-05-24T13:46:41.150Z,15.13
2023-05-24T13:49:09.488Z,15.22
2023-05-24T13:51:36.907Z,15.29
2023-05-24T13:54:07.414Z,15.41
2023-05-24T13:56:36.767Z,15.41
2023-05-24T13:59:04.839Z,15.49
2023-05-24T14:01:32.648Z,15.49
2023-05-24T14:04:01.653Z,15.42
2023-05-24T14:06:29.374Z,15.37
2023-05-24T14:08:56.116Z,15.42
2023-05-24T14:11:22.986Z,15.40
2023-05-24T14:16:20.694Z,15.37
2023-05-24T14:18:49.368Z,15.51
2023-05-24T14:21:16.520Z,15.69
2023-05-24T14:23:43.259Z,15.75
2023-05-24T14:26:09.944Z,15.79
2023-05-24T14:28:36.658Z,15.80
2023-05-24T14:31:03.518Z,15.67
2023-05-24T14:33:30.329Z,15.61
2023-05-24T14:35:58.330Z,15.45
2023-05-24T14:38:25.729Z,15.52
2023-05-24T14:40:52.446Z,15.50
2023-05-24T14:43:19.147Z,15.55
2023-05-24T14:45:46.042Z,15.59
2023-05-24T14:48:13.355Z,15.54
2023-05-24T14:50:41.442Z,15.52
2023-05-24T14:53:15.193Z,15.58
2023-05-24T14:55:43.980Z,15.66
2023-05-24T14:58:12.282Z,15.66
2023-05-24T15:00:45.688Z,15.81
2023-05-24T15:03:14.753Z,15.83
2023-05-24T15:05:43.152Z,15.80
2023-05-24T15:08:14.085Z,15.91
2023-05-24T15:10:41.311Z,15.88
2023-05-24T15:13:09.896Z,15.76
2023-05-24T15:15:36.616Z,15.72
2023-05-24T15:18:03.399Z,15.68
2023-05-24T15:20:30.295Z,15.68
2023-05-24T15:22:57.116Z,15.64
2023-05-24T15:25:23.791Z,15.45
2023-05-24T15:27:52.191Z,15.47
2023-05-24T15:30:20.082Z,15.39
2023-05-24T15:32:49.230Z,15.30
2023-05-24T15:35:17.416Z,15.33
2023-05-24T15:37:44.070Z,15.19
2023-05-24T15:40:11.721Z,15.14
2023-05-24T15:42:38.698Z,15.16
2023-05-24T15:45:06.018Z,15.09
2023-05-24T15:47:38.154Z,15.00
2023-05-24T15:50:06.376Z,14.90
2023-05-24T15:52:35.172Z,14.81
2023-05-24T15:55:02.059Z,14.79
2023-05-24T15:57:28.723Z,14.81
2023-05-24T15:59:55.544Z,14.80
2023-05-24T16:02:22.634Z,14.87
2023-05-24T16:04:50.007Z,14.79
2023-05-24T16:07:18.317Z,14.86
2023-05-24T16:09:46.944Z,14.88
2023-05-24T16:12:13.719Z,14.88
2023-05-24T16:14:40.320Z,14.83
2023-05-24T16:17:07.776Z,14.83
2023-05-24T16:19:36.364Z,14.75
2023-05-24T16:22:03.291Z,14.79
2023-05-24T16:24:30.626Z,14.68
2023-05-24T16:26:58.689Z,14.69
2023-05-24T16:29:27.925Z,14.55
2023-05-24T16:31:54.656Z,14.58
2023-05-24T16:34:23.875Z,14.49
2023-05-24T16:36:50.565Z,14.51
2023-05-24T16:39:17.403Z,14.50
2023-05-24T16:41:44.291Z,14.49
2023-05-24T16:44:17.585Z,14.44
2023-05-24T16:46:45.807Z,14.40
2023-05-24T16:49:13.030Z,14.38
2023-05-24T16:51:39.958Z,14.36
2023-05-24T16:54:09.517Z,14.35
2023-05-24T16:56:37.991Z,14.27
2023-05-24T16:59:05.607Z,14.25
2023-05-24T17:01:34.709Z,14.21
2023-05-24T17:04:01.742Z,14.08
2023-05-24T17:06:28.561Z,14.09
2023-05-24T17:08:55.171Z,14.11
2023-05-24T17:11:23.342Z,14.11
2023-05-24T17:13:52.427Z,14.05
2023-05-24T17:16:20.789Z,14.07
2023-05-24T17:18:55.315Z,14.03
2023-05-24T17:21:29.021Z,13.94
2023-05-24T17:23:57.255Z,13.93
2023-05-24T17:29:05.420Z,13.96
2023-05-24T17:31:32.936Z,13.93
2023-05-24T17:33:59.988Z,13.92
2023-05-24T17:36:26.570Z,13.89
2023-05-24T17:38:53.060Z,13.87
2023-05-24T17:41:19.613Z,13.83
2023-05-24T17:43:46.259Z,13.81
2023-05-24T17:46:13.676Z,13.82
2023-05-24T17:48:40.966Z,13.79
2023-05-24T17:51:08.913Z,13.76
2023-05-24T17:53:37.103Z,13.80
2023-05-24T17:56:05.394Z,13.76
2023-05-24T17:58:36.316Z,13.75
2023-05-24T18:01:08.976Z,13.74
2023-05-24T18:03:39.266Z,13.75
2023-05-24T18:06:07.599Z,13.68
2023-05-24T18:08:39.091Z,13.70
2023-05-24T18:11:08.749Z,13.58
2023-05-24T18:13:36.639Z,13.61
2023-05-24T18:16:03.448Z,13.57
2023-05-24T18:18:30.414Z,13.50
2023-05-24T18:20:57.038Z,13.45
2023-05-24T18:23:23.609Z,13.44
2023-05-24T18:25:50.162Z,13.40
2023-05-24T18:28:27.068Z,13.32
2023-05-24T18:30:53.610Z,13.32
2023-05-24T18:33:20.272Z,13.27
2023-05-24T18:35:46.816Z,13.27
2023-05-24T18:38:13.349Z,13.23
2023-05-24T18:40:39.914Z,13.13
2023-05-24T18:43:06.428Z,13.17
2023-05-24T18:45:32.979Z,13.12
2023-05-24T18:48:01.312Z,13.07
2023-05-24T18:50:27.953Z,13.07
2023-05-24T18:52:54.466Z,13.04
2023-05-24T18:55:21.045Z,13.03
2023-05-24T18:57:47.928Z,13.02
2023-05-24T19:00:14.701Z,12.93
2023-05-24T19:02:41.502Z,12.89
2023-05-24T19:05:08.615Z,12.88
2023-05-24T19:07:36.016Z,12.78
2023-05-24T19:10:03.302Z,12.71
2023-05-24T19:12:30.390Z,12.69
2023-05-24T19:14:57.178Z,12.57
2023-05-24T19:17:25.074Z,12.59
2023-05-24T19:19:52.056Z,12.53
2023-05-24T19:22:18.776Z,12.51
2023-05-24T19:24:45.254Z,12.48
2023-05-24T19:27:11.899Z,12.35
2023-05-24T19:29:40.017Z,12.28
2023-05-24T19:32:11.764Z,12.22
2023-05-24T19:34:42.342Z,12.22
2023-05-24T19:37:09.794Z,12.17
2023-05-24T19:39:37.336Z,12.12
2023-05-24T19:42:04.514Z,12.10
2023-05-24T19:44:31.233Z,12.12
2023-05-24T19:46:57.764Z,12.10
2023-05-24T19:49:24.488Z,12.03
2023-05-24T19:51:51.072Z,12.09
2023-05-24T19:54:17.627Z,11.98
2023-05-24T19:56:44.200Z,11.97
2023-05-24T19:59:10.781Z,11.93
2023-05-24T20:01:37.367Z,11.94
2023-05-24T20:04:04.010Z,11.94
2023-05-24T20:06:31.564Z,11.87
2023-05-24T20:08:59.732Z,11.81
2023-05-24T20:11:26.767Z,11.79
2023-05-24T20:13:53.476Z,11.80
2023-05-24T20:16:19.999Z,11.82
2023-05-24T20:18:46.721Z,11.77
2023-05-24T20:21:13.330Z,11.74
2023-05-24T20:23:39.945Z,11.62
2023-05-24T20:26:06.548Z,11.59
2023-05-24T20:28:33.140Z,11.52
2023-05-24T20:30:59.878Z,11.37
2023-05-24T20:33:26.355Z,11.37
2023-05-24T20:35:56.027Z,11.28
2023-05-24T20:38:23.445Z,11.17
2023-05-24T20:40:50.000Z,11.13
2023-05-24T20:43:16.593Z,11.12
2023-05-24T20:45:43.390Z,11.04
2023-05-24T20:48:10.145Z,11.05
2023-05-24T20:50:37.207Z,11.03
2023-05-24T20:53:03.776Z,10.90
2023-05-24T20:55:31.283Z,10.76
2023-05-24T20:57:57.847Z,10.77
2023-05-24T21:00:24.401Z,10.69
2023-05-24T21:02:51.491Z,10.77
2023-05-24T21:05:18.219Z,10.68
2023-05-24T21:07:44.807Z,10.62
2023-05-24T21:10:18.546Z,10.66
2023-05-24T21:12:45.154Z,10.48
2023-05-24T21:15:11.931Z,10.41
2023-05-24T21:17:39.317Z,10.45
2023-05-24T21:20:06.312Z,10.37
2023-05-24T21:22:32.918Z,10.27
2023-05-24T21:24:59.529Z,10.16
2023-05-24T21:27:27.551Z,10.06
2023-05-24T21:29:54.253Z,9.94
2023-05-24T21:32:20.944Z,9.76
2023-05-24T21:34:47.548Z,9.60
2023-05-24T21:37:14.114Z,9.64
2023-05-24T21:39:41.029Z,9.70
2023-05-24T21:42:07.611Z,9.55
2023-05-24T21:44:34.166Z,9.42
2023-05-24T21:47:00.937Z,9.40
2023-05-24T21:49:27.735Z,9.37
2023-05-24T21:51:54.295Z,9.15
2023-05-24T21:54:21.009Z,9.04
2023-05-24T21:56:47.600Z,9.01
2023-05-24T21:59:14.995Z,8.96
2023-05-24T22:01:42.035Z,8.92
2023-05-24T22:04:09.755Z,8.85
2023-05-24T22:06:36.602Z,8.80
2023-05-24T22:09:03.105Z,8.79
2023-05-24T22:11:29.731Z,8.61
2023-05-24T22:13:56.744Z,8.63
2023-05-24T22:16:24.116Z,8.59
2023-05-24T22:18:55.595Z,8.58
2023-05-24T22:21:22.849Z,8.38
2023-05-24T22:23:51.593Z,8.44
2023-05-24T22:26:18.185Z,8.37
2023-05-24T22:28:55.502Z,8.36
2023-05-24T22:31:24.128Z,8.44
2023-05-24T22:33:51.265Z,8.46
2023-05-24T22:36:18.850Z,8.42
2023-05-24T22:38:45.509Z,8.43
2023-05-24T22:41:12.181Z,8.45
2023-05-24T22:43:38.736Z,8.47
2023-05-24T22:46:06.674Z,8.43
2023-05-24T22:48:35.074Z,8.42
2023-05-24T22:51:01.812Z,8.41
2023-05-24T22:53:28.854Z,8.43
2023-05-24T22:55:55.435Z,8.43
2023-05-24T22:58:23.732Z,8.49
2023-05-24T23:00:51.429Z,8.48
2023-05-24T23:03:18.375Z,8.45
2023-05-24T23:05:45.887Z,8.47
2023-05-24T23:08:15.383Z,8.37
2023-05-24T23:10:48.212Z,8.43
2023-05-24T23:13:16.903Z,8.40
2023-05-24T23:15:43.807Z,8.29
2023-05-24T23:18:16.112Z,8.33
2023-05-24T23:20:44.615Z,8.32
2023-05-24T23:23:11.260Z,8.16
2023-05-24T23:25:37.910Z,8.16
2023-05-24T23:28:05.058Z,8.20
2023-05-24T23:30:31.735Z,8.10
2023-05-24T23:32:59.543Z,8.08
2023-05-24T23:35:26.227Z,8.05
2023-05-24T23:37:53.877Z,8.04
2023-05-24T23:40:20.956Z,8.05
2023-05-24T23:42:47.525Z,7.83
2023-05-24T23:45:15.831Z,7.84
2023-05-24T23:47:43.639Z,7.89
2023-05-24T23:50:10.977Z,7.92
2023-05-24T23:52:37.978Z,7.85
2023-05-24T23:55:06.495Z,7.75
2023-05-24T23:57:37.068Z,7.73
